sensor_id;sensor_type;location;lat;lon;timestamp;P1;durP1;ratioP1;P2;durP2;ratioP2
45114;SDS011;30877;43.706;10.780;2023-11-19T00:00:35;12.60;;;8.15;;
45114;SDS011;30877;43.706;10.780;2023-11-19T00:03:03;13.27;;;9.30;;
45114;SDS011;30877;43.706;10.780;2023-11-19T00:05:33;13.02;;;9.02;;
45114;SDS011;30877;43.706;10.780;2023-11-19T00:08:02;12.73;;;9.05;;
45114;SDS011;30877;43.706;10.780;2023-11-19T00:10:30;14.30;;;9.35;;
45114;SDS011;30877;43.706;10.780;2023-11-19T00:12:59;13.93;;;9.30;;
45114;SDS011;30877;43.706;10.780;2023-11-19T00:15:29;15.10;;;10.02;;
45114;SDS011;30877;43.706;10.780;2023-11-19T00:17:57;14.68;;;9.98;;
45114;SDS011;30877;43.706;10.780;2023-11-19T00:20:28;13.80;;;9.25;;
45114;SDS011;30877;43.706;10.780;2023-11-19T00:22:56;12.35;;;7.43;;
45114;SDS011;30877;43.706;10.780;2023-11-19T00:25:25;11.32;;;7.22;;
45114;SDS011;30877;43.706;10.780;2023-11-19T00:27:54;9.68;;;6.82;;
45114;SDS011;30877;43.706;10.780;2023-11-19T00:30:24;8.93;;;6.35;;
45114;SDS011;30877;43.706;10.780;2023-11-19T00:32:54;9.68;;;6.90;;
45114;SDS011;30877;43.706;10.780;2023-11-19T00:35:22;10.52;;;6.65;;
45114;SDS011;30877;43.706;10.780;2023-11-19T00:37:51;7.80;;;6.18;;
45114;SDS011;30877;43.706;10.780;2023-11-19T00:40:21;11.95;;;6.15;;
45114;SDS011;30877;43.706;10.780;2023-11-19T00:42:51;9.70;;;6.28;;
45114;SDS011;30877;43.706;10.780;2023-11-19T00:45:20;7.97;;;5.75;;
45114;SDS011;30877;43.706;10.780;2023-11-19T00:47:48;12.38;;;6.60;;
45114;SDS011;30877;43.706;10.780;2023-11-19T00:50:19;9.00;;;6.15;;
45114;SDS011;30877;43.706;10.780;2023-11-19T00:52:47;8.13;;;5.75;;
45114;SDS011;30877;43.706;10.780;2023-11-19T00:55:17;10.70;;;7.40;;
45114;SDS011;30877;43.706;10.780;2023-11-19T00:57:46;9.93;;;6.50;;
45114;SDS011;30877;43.706;10.780;2023-11-19T01:00:14;10.65;;;6.50;;
45114;SDS011;30877;43.706;10.780;2023-11-19T01:02:47;12.27;;;6.90;;
45114;SDS011;30877;43.706;10.780;2023-11-19T01:05:20;11.57;;;7.22;;
45114;SDS011;30877;43.706;10.780;2023-11-19T01:07:50;9.70;;;6.20;;
45114;SDS011;30877;43.706;10.780;2023-11-19T01:10:22;11.27;;;6.82;;
45114;SDS011;30877;43.706;10.780;2023-11-19T01:12:51;8.40;;;6.53;;
45114;SDS011;30877;43.706;10.780;2023-11-19T01:15:20;9.57;;;6.40;;
45114;SDS011;30877;43.706;10.780;2023-11-19T01:17:50;12.70;;;6.45;;
45114;SDS011;30877;43.706;10.780;2023-11-19T01:20:22;11.52;;;6.65;;
45114;SDS011;30877;43.706;10.780;2023-11-19T01:22:51;10.45;;;6.68;;
45114;SDS011;30877;43.706;10.780;2023-11-19T01:25:19;9.40;;;6.40;;
45114;SDS011;30877;43.706;10.780;2023-11-19T01:27:48;8.18;;;6.22;;
45114;SDS011;30877;43.706;10.780;2023-11-19T01:30:17;10.57;;;7.05;;
45114;SDS011;30877;43.706;10.780;2023-11-19T01:32:48;10.65;;;7.05;;
45114;SDS011;30877;43.706;10.780;2023-11-19T01:35:18;10.68;;;7.43;;
45114;SDS011;30877;43.706;10.780;2023-11-19T01:37:48;15.02;;;7.90;;
45114;SDS011;30877;43.706;10.780;2023-11-19T01:40:20;9.93;;;7.43;;
45114;SDS011;30877;43.706;10.780;2023-11-19T01:42:49;10.10;;;7.10;;
45114;SDS011;30877;43.706;10.780;2023-11-19T01:45:21;9.48;;;7.63;;
45114;SDS011;30877;43.706;10.780;2023-11-19T01:47:55;13.23;;;7.60;;
45114;SDS011;30877;43.706;10.780;2023-11-19T01:50:24;12.07;;;7.47;;
45114;SDS011;30877;43.706;10.780;2023-11-19T01:52:55;8.57;;;6.85;;
45114;SDS011;30877;43.706;10.780;2023-11-19T01:55:25;9.45;;;6.43;;
45114;SDS011;30877;43.706;10.780;2023-11-19T01:57:58;8.32;;;6.47;;
45114;SDS011;30877;43.706;10.780;2023-11-19T02:00:29;10.10;;;7.18;;
45114;SDS011;30877;43.706;10.780;2023-11-19T02:03:00;9.18;;;5.63;;
45114;SDS011;30877;43.706;10.780;2023-11-19T02:05:31;10.55;;;6.45;;
45114;SDS011;30877;43.706;10.780;2023-11-19T02:08:02;9.75;;;5.28;;
45114;SDS011;30877;43.706;10.780;2023-11-19T02:10:31;7.68;;;5.60;;
45114;SDS011;30877;43.706;10.780;2023-11-19T02:13:00;7.28;;;5.18;;
45114;SDS011;30877;43.706;10.780;2023-11-19T02:15:33;9.80;;;5.53;;
45114;SDS011;30877;43.706;10.780;2023-11-19T02:18:17;6.47;;;4.47;;
45114;SDS011;30877;43.706;10.780;2023-11-19T02:20:47;6.60;;;5.20;;
45114;SDS011;30877;43.706;10.780;2023-11-19T02:23:19;7.28;;;5.10;;
45114;SDS011;30877;43.706;10.780;2023-11-19T02:25:52;7.55;;;4.97;;
45114;SDS011;30877;43.706;10.780;2023-11-19T02:28:31;7.32;;;5.25;;
45114;SDS011;30877;43.706;10.780;2023-11-19T02:31:00;8.38;;;5.60;;
45114;SDS011;30877;43.706;10.780;2023-11-19T02:33:30;8.55;;;5.00;;
45114;SDS011;30877;43.706;10.780;2023-11-19T02:35:58;8.10;;;5.30;;
45114;SDS011;30877;43.706;10.780;2023-11-19T02:38:27;6.80;;;4.72;;
45114;SDS011;30877;43.706;10.780;2023-11-19T02:40:55;10.27;;;5.50;;
45114;SDS011;30877;43.706;10.780;2023-11-19T02:43:24;8.20;;;5.80;;
45114;SDS011;30877;43.706;10.780;2023-11-19T02:45:54;7.30;;;5.55;;
45114;SDS011;30877;43.706;10.780;2023-11-19T02:48:23;7.65;;;5.50;;
45114;SDS011;30877;43.706;10.780;2023-11-19T02:50:52;8.20;;;5.60;;
45114;SDS011;30877;43.706;10.780;2023-11-19T02:53:20;9.70;;;5.30;;
45114;SDS011;30877;43.706;10.780;2023-11-19T02:55:50;8.38;;;5.03;;
45114;SDS011;30877;43.706;10.780;2023-11-19T02:58:19;8.23;;;5.10;;
45114;SDS011;30877;43.706;10.780;2023-11-19T03:00:47;9.38;;;5.28;;
45114;SDS011;30877;43.706;10.780;2023-11-19T03:03:23;7.80;;;5.32;;
45114;SDS011;30877;43.706;10.780;2023-11-19T03:05:56;6.18;;;4.85;;
45114;SDS011;30877;43.706;10.780;2023-11-19T03:08:24;6.47;;;4.68;;
45114;SDS011;30877;43.706;10.780;2023-11-19T03:10:53;7.53;;;4.75;;
45114;SDS011;30877;43.706;10.780;2023-11-19T03:13:21;7.63;;;5.25;;
45114;SDS011;30877;43.706;10.780;2023-11-19T03:15:50;8.55;;;5.00;;
45114;SDS011;30877;43.706;10.780;2023-11-19T03:18:18;7.20;;;4.88;;
45114;SDS011;30877;43.706;10.780;2023-11-19T03:20:49;9.00;;;4.50;;
45114;SDS011;30877;43.706;10.780;2023-11-19T03:23:19;7.35;;;4.78;;
45114;SDS011;30877;43.706;10.780;2023-11-19T03:25:48;6.43;;;4.50;;
45114;SDS011;30877;43.706;10.780;2023-11-19T03:28:16;6.85;;;4.70;;
45114;SDS011;30877;43.706;10.780;2023-11-19T03:30:45;5.15;;;4.20;;
45114;SDS011;30877;43.706;10.780;2023-11-19T03:33:14;8.57;;;4.80;;
45114;SDS011;30877;43.706;10.780;2023-11-19T03:35:42;8.43;;;4.95;;
45114;SDS011;30877;43.706;10.780;2023-11-19T03:38:13;6.97;;;4.13;;
45114;SDS011;30877;43.706;10.780;2023-11-19T03:40:42;9.18;;;4.85;;
45114;SDS011;30877;43.706;10.780;2023-11-19T03:43:11;8.35;;;4.40;;
45114;SDS011;30877;43.706;10.780;2023-11-19T03:45:40;5.28;;;4.30;;
45114;SDS011;30877;43.706;10.780;2023-11-19T03:48:09;6.57;;;4.53;;
45114;SDS011;30877;43.706;10.780;2023-11-19T03:50:37;6.93;;;4.40;;
45114;SDS011;30877;43.706;10.780;2023-11-19T03:53:06;6.13;;;4.00;;
45114;SDS011;30877;43.706;10.780;2023-11-19T03:55:36;7.63;;;4.90;;
45114;SDS011;30877;43.706;10.780;2023-11-19T03:58:05;7.22;;;4.85;;
45114;SDS011;30877;43.706;10.780;2023-11-19T04:00:33;8.23;;;4.70;;
45114;SDS011;30877;43.706;10.780;2023-11-19T04:03:01;5.75;;;4.07;;
45114;SDS011;30877;43.706;10.780;2023-11-19T04:05:30;7.25;;;4.05;;
45114;SDS011;30877;43.706;10.780;2023-11-19T04:07:59;4.75;;;3.83;;
45114;SDS011;30877;43.706;10.780;2023-11-19T04:10:28;6.97;;;3.88;;
45114;SDS011;30877;43.706;10.780;2023-11-19T04:12:58;6.75;;;4.25;;
45114;SDS011;30877;43.706;10.780;2023-11-19T04:15:26;7.15;;;4.40;;
45114;SDS011;30877;43.706;10.780;2023-11-19T04:17:55;6.82;;;4.00;;
45114;SDS011;30877;43.706;10.780;2023-11-19T04:20:23;7.80;;;4.25;;
45114;SDS011;30877;43.706;10.780;2023-11-19T04:22:54;6.22;;;3.60;;
45114;SDS011;30877;43.706;10.780;2023-11-19T04:25:23;6.70;;;3.67;;
45114;SDS011;30877;43.706;10.780;2023-11-19T04:27:53;8.00;;;3.88;;
45114;SDS011;30877;43.706;10.780;2023-11-19T04:30:23;6.32;;;3.83;;
45114;SDS011;30877;43.706;10.780;2023-11-19T04:32:52;5.45;;;3.80;;
45114;SDS011;30877;43.706;10.780;2023-11-19T04:35:20;7.22;;;3.67;;
45114;SDS011;30877;43.706;10.780;2023-11-19T04:37:48;6.25;;;4.20;;
45114;SDS011;30877;43.706;10.780;2023-11-19T04:40:17;5.60;;;4.40;;
45114;SDS011;30877;43.706;10.780;2023-11-19T04:42:45;6.57;;;4.28;;
45114;SDS011;30877;43.706;10.780;2023-11-19T04:45:14;6.90;;;3.75;;
45114;SDS011;30877;43.706;10.780;2023-11-19T04:47:44;6.15;;;4.47;;
45114;SDS011;30877;43.706;10.780;2023-11-19T04:50:13;5.57;;;3.65;;
45114;SDS011;30877;43.706;10.780;2023-11-19T04:52:42;8.85;;;4.13;;
45114;SDS011;30877;43.706;10.780;2023-11-19T04:55:13;5.90;;;4.13;;
45114;SDS011;30877;43.706;10.780;2023-11-19T04:57:42;5.40;;;3.53;;
45114;SDS011;30877;43.706;10.780;2023-11-19T05:00:10;5.97;;;3.83;;
45114;SDS011;30877;43.706;10.780;2023-11-19T05:02:45;5.72;;;3.50;;
45114;SDS011;30877;43.706;10.780;2023-11-19T05:05:15;4.03;;;3.30;;
45114;SDS011;30877;43.706;10.780;2023-11-19T05:07:44;7.60;;;3.75;;
45114;SDS011;30877;43.706;10.780;2023-11-19T05:10:13;6.25;;;3.97;;
45114;SDS011;30877;43.706;10.780;2023-11-19T05:12:46;5.63;;;3.88;;
45114;SDS011;30877;43.706;10.780;2023-11-19T05:15:14;4.18;;;3.55;;
45114;SDS011;30877;43.706;10.780;2023-11-19T05:17:43;7.90;;;4.78;;
45114;SDS011;30877;43.706;10.780;2023-11-19T05:20:12;11.93;;;8.45;;
45114;SDS011;30877;43.706;10.780;2023-11-19T05:22:41;14.93;;;7.90;;
45114;SDS011;30877;43.706;10.780;2023-11-19T05:25:10;13.00;;;8.10;;
45114;SDS011;30877;43.706;10.780;2023-11-19T05:27:38;11.93;;;8.52;;
45114;SDS011;30877;43.706;10.780;2023-11-19T05:30:07;10.43;;;7.85;;
45114;SDS011;30877;43.706;10.780;2023-11-19T05:32:38;10.80;;;7.53;;
45114;SDS011;30877;43.706;10.780;2023-11-19T05:35:08;9.20;;;7.18;;
45114;SDS011;30877;43.706;10.780;2023-11-19T05:37:37;7.90;;;6.35;;
45114;SDS011;30877;43.706;10.780;2023-11-19T05:40:06;8.30;;;5.50;;
45114;SDS011;30877;43.706;10.780;2023-11-19T05:42:42;6.95;;;4.38;;
45114;SDS011;30877;43.706;10.780;2023-11-19T05:45:11;6.82;;;4.15;;
45114;SDS011;30877;43.706;10.780;2023-11-19T05:47:39;4.82;;;3.63;;
45114;SDS011;30877;43.706;10.780;2023-11-19T05:50:10;6.22;;;3.58;;
45114;SDS011;30877;43.706;10.780;2023-11-19T05:52:39;7.90;;;3.40;;
45114;SDS011;30877;43.706;10.780;2023-11-19T05:55:07;4.20;;;3.35;;
45114;SDS011;30877;43.706;10.780;2023-11-19T05:57:39;3.78;;;3.03;;
45114;SDS011;30877;43.706;10.780;2023-11-19T06:00:11;6.40;;;2.83;;
45114;SDS011;30877;43.706;10.780;2023-11-19T06:02:43;5.20;;;2.83;;
45114;SDS011;30877;43.706;10.780;2023-11-19T06:05:13;7.00;;;3.45;;
45114;SDS011;30877;43.706;10.780;2023-11-19T06:07:42;5.78;;;3.75;;
45114;SDS011;30877;43.706;10.780;2023-11-19T06:10:10;7.15;;;3.80;;
45114;SDS011;30877;43.706;10.780;2023-11-19T06:12:41;6.63;;;3.40;;
45114;SDS011;30877;43.706;10.780;2023-11-19T06:15:10;5.13;;;3.70;;
45114;SDS011;30877;43.706;10.780;2023-11-19T06:17:39;6.20;;;4.18;;
45114;SDS011;30877;43.706;10.780;2023-11-19T06:20:08;6.82;;;4.60;;
45114;SDS011;30877;43.706;10.780;2023-11-19T06:22:40;7.72;;;6.65;;
45114;SDS011;30877;43.706;10.780;2023-11-19T06:25:11;6.85;;;4.97;;
45114;SDS011;30877;43.706;10.780;2023-11-19T06:27:42;6.97;;;4.80;;
45114;SDS011;30877;43.706;10.780;2023-11-19T06:30:10;8.63;;;4.88;;
45114;SDS011;30877;43.706;10.780;2023-11-19T06:32:39;7.45;;;4.88;;
45114;SDS011;30877;43.706;10.780;2023-11-19T06:35:08;8.93;;;5.53;;
45114;SDS011;30877;43.706;10.780;2023-11-19T06:37:38;6.50;;;4.18;;
45114;SDS011;30877;43.706;10.780;2023-11-19T06:40:09;6.47;;;4.28;;
45114;SDS011;30877;43.706;10.780;2023-11-19T06:42:39;8.20;;;4.90;;
45114;SDS011;30877;43.706;10.780;2023-11-19T06:45:08;8.15;;;4.80;;
45114;SDS011;30877;43.706;10.780;2023-11-19T06:47:37;7.30;;;4.93;;
45114;SDS011;30877;43.706;10.780;2023-11-19T06:50:06;9.40;;;5.57;;
45114;SDS011;30877;43.706;10.780;2023-11-19T06:52:36;8.65;;;5.18;;
45114;SDS011;30877;43.706;10.780;2023-11-19T06:55:07;8.95;;;5.68;;
45114;SDS011;30877;43.706;10.780;2023-11-19T06:57:36;9.10;;;5.25;;
45114;SDS011;30877;43.706;10.780;2023-11-19T07:00:05;8.75;;;4.80;;
45114;SDS011;30877;43.706;10.780;2023-11-19T07:02:34;15.95;;;5.40;;
45114;SDS011;30877;43.706;10.780;2023-11-19T07:05:03;7.82;;;5.20;;
45114;SDS011;30877;43.706;10.780;2023-11-19T07:07:32;9.55;;;5.60;;
45114;SDS011;30877;43.706;10.780;2023-11-19T07:10:01;7.88;;;5.57;;
45114;SDS011;30877;43.706;10.780;2023-11-19T07:12:33;6.57;;;5.22;;
45114;SDS011;30877;43.706;10.780;2023-11-19T07:15:03;6.43;;;5.25;;
45114;SDS011;30877;43.706;10.780;2023-11-19T07:17:36;8.13;;;5.43;;
45114;SDS011;30877;43.706;10.780;2023-11-19T07:20:08;8.18;;;5.63;;
45114;SDS011;30877;43.706;10.780;2023-11-19T07:22:43;8.23;;;5.80;;
45114;SDS011;30877;43.706;10.780;2023-11-19T07:25:14;13.73;;;5.93;;
45114;SDS011;30877;43.706;10.780;2023-11-19T07:27:45;8.73;;;5.63;;
45114;SDS011;30877;43.706;10.780;2023-11-19T07:30:15;7.93;;;5.65;;
45114;SDS011;30877;43.706;10.780;2023-11-19T07:32:43;6.65;;;5.10;;
45114;SDS011;30877;43.706;10.780;2023-11-19T07:35:12;8.93;;;5.60;;
45114;SDS011;30877;43.706;10.780;2023-11-19T07:37:40;8.77;;;5.68;;
45114;SDS011;30877;43.706;10.780;2023-11-19T07:40:10;9.32;;;5.63;;
45114;SDS011;30877;43.706;10.780;2023-11-19T07:42:39;8.23;;;5.72;;
45114;SDS011;30877;43.706;10.780;2023-11-19T07:45:10;7.75;;;5.47;;
45114;SDS011;30877;43.706;10.780;2023-11-19T07:47:38;8.68;;;5.72;;
45114;SDS011;30877;43.706;10.780;2023-11-19T07:50:08;7.05;;;5.20;;
45114;SDS011;30877;43.706;10.780;2023-11-19T07:52:37;9.15;;;6.30;;
45114;SDS011;30877;43.706;10.780;2023-11-19T07:55:06;9.07;;;6.75;;
45114;SDS011;30877;43.706;10.780;2023-11-19T07:57:35;10.90;;;6.95;;
45114;SDS011;30877;43.706;10.780;2023-11-19T08:00:04;11.13;;;7.72;;
45114;SDS011;30877;43.706;10.780;2023-11-19T08:02:44;12.68;;;7.82;;
45114;SDS011;30877;43.706;10.780;2023-11-19T08:05:13;13.25;;;8.38;;
45114;SDS011;30877;43.706;10.780;2023-11-19T08:07:44;12.00;;;8.75;;
45114;SDS011;30877;43.706;10.780;2023-11-19T08:10:12;10.35;;;7.82;;
45114;SDS011;30877;43.706;10.780;2023-11-19T08:12:42;13.02;;;9.00;;
45114;SDS011;30877;43.706;10.780;2023-11-19T08:15:10;11.43;;;8.57;;
45114;SDS011;30877;43.706;10.780;2023-11-19T08:17:38;10.48;;;8.15;;
45114;SDS011;30877;43.706;10.780;2023-11-19T08:20:09;11.90;;;9.15;;
45114;SDS011;30877;43.706;10.780;2023-11-19T08:22:38;12.80;;;8.32;;
45114;SDS011;30877;43.706;10.780;2023-11-19T08:25:07;12.25;;;8.15;;
45114;SDS011;30877;43.706;10.780;2023-11-19T08:27:36;11.95;;;8.73;;
45114;SDS011;30877;43.706;10.780;2023-11-19T08:30:04;11.10;;;8.50;;
45114;SDS011;30877;43.706;10.780;2023-11-19T08:32:34;11.90;;;9.30;;
45114;SDS011;30877;43.706;10.780;2023-11-19T08:35:03;14.45;;;9.38;;
45114;SDS011;30877;43.706;10.780;2023-11-19T08:37:34;11.00;;;9.10;;
45114;SDS011;30877;43.706;10.780;2023-11-19T08:40:05;11.25;;;9.10;;
45114;SDS011;30877;43.706;10.780;2023-11-19T08:42:34;14.65;;;9.20;;
45114;SDS011;30877;43.706;10.780;2023-11-19T08:45:04;11.02;;;8.63;;
45114;SDS011;30877;43.706;10.780;2023-11-19T08:47:32;12.18;;;8.38;;
45114;SDS011;30877;43.706;10.780;2023-11-19T08:50:02;11.95;;;8.23;;
45114;SDS011;30877;43.706;10.780;2023-11-19T08:52:31;9.90;;;8.18;;
45114;SDS011;30877;43.706;10.780;2023-11-19T08:55:03;9.20;;;8.27;;
45114;SDS011;30877;43.706;10.780;2023-11-19T08:57:32;10.40;;;8.60;;
45114;SDS011;30877;43.706;10.780;2023-11-19T09:00:01;11.93;;;9.10;;
45114;SDS011;30877;43.706;10.780;2023-11-19T09:02:35;11.68;;;8.63;;
45114;SDS011;30877;43.706;10.780;2023-11-19T09:05:05;13.35;;;8.38;;
45114;SDS011;30877;43.706;10.780;2023-11-19T09:07:36;10.85;;;8.82;;
45114;SDS011;30877;43.706;10.780;2023-11-19T09:10:07;12.13;;;8.93;;
45114;SDS011;30877;43.706;10.780;2023-11-19T09:12:36;9.80;;;8.80;;
45114;SDS011;30877;43.706;10.780;2023-11-19T09:15:05;9.88;;;8.20;;
45114;SDS011;30877;43.706;10.780;2023-11-19T09:17:34;10.88;;;8.43;;
45114;SDS011;30877;43.706;10.780;2023-11-19T09:20:04;10.13;;;7.82;;
45114;SDS011;30877;43.706;10.780;2023-11-19T09:22:33;10.25;;;8.00;;
45114;SDS011;30877;43.706;10.780;2023-11-19T09:25:01;9.95;;;7.60;;
45114;SDS011;30877;43.706;10.780;2023-11-19T09:27:31;10.63;;;7.03;;
45114;SDS011;30877;43.706;10.780;2023-11-19T09:30:00;11.95;;;8.15;;
45114;SDS011;30877;43.706;10.780;2023-11-19T09:32:28;21.48;;;14.55;;
45114;SDS011;30877;43.706;10.780;2023-11-19T09:34:57;25.65;;;17.98;;
45114;SDS011;30877;43.706;10.780;2023-11-19T09:37:25;40.10;;;27.98;;
45114;SDS011;30877;43.706;10.780;2023-11-19T09:39:53;56.47;;;39.03;;
45114;SDS011;30877;43.706;10.780;2023-11-19T09:42:23;55.15;;;37.58;;
45114;SDS011;30877;43.706;10.780;2023-11-19T09:44:53;45.03;;;31.80;;
45114;SDS011;30877;43.706;10.780;2023-11-19T09:47:24;34.58;;;24.45;;
45114;SDS011;30877;43.706;10.780;2023-11-19T09:49:55;23.98;;;16.38;;
45114;SDS011;30877;43.706;10.780;2023-11-19T09:52:25;16.25;;;11.55;;
45114;SDS011;30877;43.706;10.780;2023-11-19T09:54:53;15.25;;;11.07;;
45114;SDS011;30877;43.706;10.780;2023-11-19T09:57:22;14.98;;;9.60;;
45114;SDS011;30877;43.706;10.780;2023-11-19T09:59:50;13.88;;;8.35;;
45114;SDS011;30877;43.706;10.780;2023-11-19T10:02:22;12.27;;;8.75;;
45114;SDS011;30877;43.706;10.780;2023-11-19T10:04:52;10.57;;;8.43;;
45114;SDS011;30877;43.706;10.780;2023-11-19T10:07:21;11.23;;;7.15;;
45114;SDS011;30877;43.706;10.780;2023-11-19T10:09:53;9.18;;;6.80;;
45114;SDS011;30877;43.706;10.780;2023-11-19T10:12:21;10.18;;;6.68;;
45114;SDS011;30877;43.706;10.780;2023-11-19T10:14:50;8.38;;;6.60;;
45114;SDS011;30877;43.706;10.780;2023-11-19T10:17:21;8.88;;;6.60;;
45114;SDS011;30877;43.706;10.780;2023-11-19T10:19:50;8.63;;;6.30;;
45114;SDS011;30877;43.706;10.780;2023-11-19T10:22:19;10.38;;;7.00;;
45114;SDS011;30877;43.706;10.780;2023-11-19T10:24:47;9.63;;;5.93;;
45114;SDS011;30877;43.706;10.780;2023-11-19T10:27:23;8.57;;;6.55;;
45114;SDS011;30877;43.706;10.780;2023-11-19T10:29:54;11.30;;;7.47;;
45114;SDS011;30877;43.706;10.780;2023-11-19T10:32:27;11.30;;;7.88;;
45114;SDS011;30877;43.706;10.780;2023-11-19T10:35:05;12.98;;;8.77;;
45114;SDS011;30877;43.706;10.780;2023-11-19T10:37:34;14.15;;;9.50;;
45114;SDS011;30877;43.706;10.780;2023-11-19T10:40:05;13.07;;;9.07;;
45114;SDS011;30877;43.706;10.780;2023-11-19T10:42:38;14.63;;;8.80;;
45114;SDS011;30877;43.706;10.780;2023-11-19T10:45:10;13.55;;;8.63;;
45114;SDS011;30877;43.706;10.780;2023-11-19T10:47:51;14.05;;;8.60;;
45114;SDS011;30877;43.706;10.780;2023-11-19T10:50:23;15.00;;;9.85;;
45114;SDS011;30877;43.706;10.780;2023-11-19T10:52:52;14.30;;;9.63;;
45114;SDS011;30877;43.706;10.780;2023-11-19T10:55:27;14.70;;;10.02;;
45114;SDS011;30877;43.706;10.780;2023-11-19T10:57:58;15.10;;;10.55;;
45114;SDS011;30877;43.706;10.780;2023-11-19T11:00:30;12.00;;;9.02;;
45114;SDS011;30877;43.706;10.780;2023-11-19T11:03:05;11.32;;;8.80;;
45114;SDS011;30877;43.706;10.780;2023-11-19T11:05:38;10.77;;;7.83;;
45114;SDS011;30877;43.706;10.780;2023-11-19T11:08:10;10.52;;;8.13;;
45114;SDS011;30877;43.706;10.780;2023-11-19T11:10:39;10.90;;;7.93;;
45114;SDS011;30877;43.706;10.780;2023-11-19T11:13:13;14.10;;;7.70;;
45114;SDS011;30877;43.706;10.780;2023-11-19T11:15:45;13.48;;;8.15;;
45114;SDS011;30877;43.706;10.780;2023-11-19T11:18:17;12.38;;;8.02;;
45114;SDS011;30877;43.706;10.780;2023-11-19T11:20:48;14.70;;;9.70;;
45114;SDS011;30877;43.706;10.780;2023-11-19T11:23:30;19.65;;;11.95;;
45114;SDS011;30877;43.706;10.780;2023-11-19T11:26:15;21.80;;;13.63;;
45114;SDS011;30877;43.706;10.780;2023-11-19T11:31:31;17.23;;;11.93;;
45114;SDS011;30877;43.706;10.780;2023-11-19T11:34:17;15.43;;;11.30;;
45114;SDS011;30877;43.706;10.780;2023-11-19T11:37:10;17.42;;;12.50;;
45114;SDS011;30877;43.706;10.780;2023-11-19T11:39:45;18.13;;;13.38;;
45114;SDS011;30877;43.706;10.780;2023-11-19T11:45:09;14.07;;;10.85;;
45114;SDS011;30877;43.706;10.780;2023-11-19T11:50:47;14.38;;;10.68;;
45114;SDS011;30877;43.706;10.780;2023-11-19T11:53:17;15.50;;;11.50;;
45114;SDS011;30877;43.706;10.780;2023-11-19T11:55:54;15.23;;;11.32;;
45114;SDS011;30877;43.706;10.780;2023-11-19T11:58:25;13.32;;;10.35;;
45114;SDS011;30877;43.706;10.780;2023-11-19T12:00:58;13.55;;;10.95;;
45114;SDS011;30877;43.706;10.780;2023-11-19T12:03:31;13.48;;;10.93;;
45114;SDS011;30877;43.706;10.780;2023-11-19T12:06:00;14.23;;;10.80;;
45114;SDS011;30877;43.706;10.780;2023-11-19T12:08:29;14.73;;;11.75;;
45114;SDS011;30877;43.706;10.780;2023-11-19T12:10:57;14.07;;;11.23;;
45114;SDS011;30877;43.706;10.780;2023-11-19T12:13:42;14.88;;;11.52;;
45114;SDS011;30877;43.706;10.780;2023-11-19T12:16:16;21.85;;;17.52;;
45114;SDS011;30877;43.706;10.780;2023-11-19T12:18:46;16.80;;;13.45;;
45114;SDS011;30877;43.706;10.780;2023-11-19T12:21:27;18.40;;;13.40;;
45114;SDS011;30877;43.706;10.780;2023-11-19T12:23:57;17.73;;;13.57;;
45114;SDS011;30877;43.706;10.780;2023-11-19T12:26:35;16.17;;;13.07;;
45114;SDS011;30877;43.706;10.780;2023-11-19T12:29:05;15.88;;;13.07;;
45114;SDS011;30877;43.706;10.780;2023-11-19T12:31:36;15.52;;;12.30;;
45114;SDS011;30877;43.706;10.780;2023-11-19T12:34:07;14.55;;;12.23;;
45114;SDS011;30877;43.706;10.780;2023-11-19T12:36:40;17.88;;;12.70;;
45114;SDS011;30877;43.706;10.780;2023-11-19T12:39:09;15.10;;;11.60;;
45114;SDS011;30877;43.706;10.780;2023-11-19T12:41:50;15.35;;;12.35;;
45114;SDS011;30877;43.706;10.780;2023-11-19T12:44:20;23.80;;;18.00;;
45114;SDS011;30877;43.706;10.780;2023-11-19T12:46:59;19.20;;;16.05;;
45114;SDS011;30877;43.706;10.780;2023-11-19T12:49:30;18.83;;;15.18;;
45114;SDS011;30877;43.706;10.780;2023-11-19T12:51:59;20.90;;;15.25;;
45114;SDS011;30877;43.706;10.780;2023-11-19T12:54:33;19.73;;;15.95;;
45114;SDS011;30877;43.706;10.780;2023-11-19T12:57:04;17.42;;;14.60;;
45114;SDS011;30877;43.706;10.780;2023-11-19T12:59:33;26.25;;;19.90;;
45114;SDS011;30877;43.706;10.780;2023-11-19T13:02:01;19.20;;;15.23;;
45114;SDS011;30877;43.706;10.780;2023-11-19T13:04:34;18.25;;;15.18;;
45114;SDS011;30877;43.706;10.780;2023-11-19T13:07:03;21.15;;;15.60;;
45114;SDS011;30877;43.706;10.780;2023-11-19T13:09:33;21.42;;;15.50;;
45114;SDS011;30877;43.706;10.780;2023-11-19T13:12:12;22.08;;;15.30;;
45114;SDS011;30877;43.706;10.780;2023-11-19T13:14:41;19.42;;;15.82;;
45114;SDS011;30877;43.706;10.780;2023-11-19T13:17:14;18.50;;;16.10;;
45114;SDS011;30877;43.706;10.780;2023-11-19T13:19:46;20.65;;;15.93;;
45114;SDS011;30877;43.706;10.780;2023-11-19T13:22:15;18.65;;;15.93;;
45114;SDS011;30877;43.706;10.780;2023-11-19T13:24:43;20.27;;;16.45;;
45114;SDS011;30877;43.706;10.780;2023-11-19T13:27:13;21.85;;;16.55;;
45114;SDS011;30877;43.706;10.780;2023-11-19T13:29:41;20.45;;;16.25;;
45114;SDS011;30877;43.706;10.780;2023-11-19T13:32:10;19.08;;;16.48;;
45114;SDS011;30877;43.706;10.780;2023-11-19T13:34:38;23.50;;;18.30;;
45114;SDS011;30877;43.706;10.780;2023-11-19T13:37:08;26.00;;;18.45;;
45114;SDS011;30877;43.706;10.780;2023-11-19T13:39:41;25.92;;;18.02;;
45114;SDS011;30877;43.706;10.780;2023-11-19T13:42:09;25.35;;;18.92;;
45114;SDS011;30877;43.706;10.780;2023-11-19T13:44:40;22.55;;;18.05;;
45114;SDS011;30877;43.706;10.780;2023-11-19T13:47:09;21.55;;;17.45;;
45114;SDS011;30877;43.706;10.780;2023-11-19T13:49:38;19.70;;;17.23;;
45114;SDS011;30877;43.706;10.780;2023-11-19T13:52:08;21.48;;;17.05;;
45114;SDS011;30877;43.706;10.780;2023-11-19T13:54:37;32.75;;;24.52;;
45114;SDS011;30877;43.706;10.780;2023-11-19T13:57:05;49.80;;;36.47;;
45114;SDS011;30877;43.706;10.780;2023-11-19T13:59:34;40.47;;;31.33;;
45114;SDS011;30877;43.706;10.780;2023-11-19T14:02:07;28.02;;;22.58;;
45114;SDS011;30877;43.706;10.780;2023-11-19T14:04:36;29.45;;;21.17;;
45114;SDS011;30877;43.706;10.780;2023-11-19T14:07:05;25.75;;;20.80;;
45114;SDS011;30877;43.706;10.780;2023-11-19T14:09:35;27.48;;;19.92;;
45114;SDS011;30877;43.706;10.780;2023-11-19T14:12:04;26.92;;;20.90;;
45114;SDS011;30877;43.706;10.780;2023-11-19T14:14:32;23.17;;;17.55;;
45114;SDS011;30877;43.706;10.780;2023-11-19T14:17:01;19.83;;;16.77;;
45114;SDS011;30877;43.706;10.780;2023-11-19T14:19:33;21.80;;;17.35;;
45114;SDS011;30877;43.706;10.780;2023-11-19T14:22:02;24.83;;;17.05;;
45114;SDS011;30877;43.706;10.780;2023-11-19T14:24:31;35.90;;;26.95;;
45114;SDS011;30877;43.706;10.780;2023-11-19T14:27:03;36.97;;;28.90;;
45114;SDS011;30877;43.706;10.780;2023-11-19T14:29:33;22.80;;;18.50;;
45114;SDS011;30877;43.706;10.780;2023-11-19T14:32:03;23.05;;;18.45;;
45114;SDS011;30877;43.706;10.780;2023-11-19T14:34:31;35.00;;;25.85;;
45114;SDS011;30877;43.706;10.780;2023-11-19T14:37:00;29.75;;;25.33;;
45114;SDS011;30877;43.706;10.780;2023-11-19T14:39:28;25.98;;;22.17;;
45114;SDS011;30877;43.706;10.780;2023-11-19T14:42:00;18.30;;;15.57;;
45114;SDS011;30877;43.706;10.780;2023-11-19T14:44:33;21.50;;;17.17;;
45114;SDS011;30877;43.706;10.780;2023-11-19T14:47:01;19.25;;;15.90;;
45114;SDS011;30877;43.706;10.780;2023-11-19T14:49:30;24.25;;;17.98;;